Plevna, MT (59344)

7:48 PM MST on February 07, 2016 (GMT -0700)
Baker Municipal | | Change Station
CLOSE
Current Station
Airport
Location: Baker,
Elevation: 2972 ft
Nearby Weather Stations

Elev 2972 ft 46.35 °N, 104.26 °W | Updated 57 minutes ago

Clear
Clear
30 °F
Feels Like 17 °F
N
21
Wind Variable Wind from NW
Gusts 30 mph

Today
High -- | Low -- °F
--% Chance of Precip.
Yesterday
High -- | Low -- °F
Precip. -- in
Pressure 30.40 in
Visibility 10.0 miles
Clouds Clear
Windchill 17 °F
Dew Point 12 °F
Humidity 47%
Rainfall 0.00 in
Snow Depth Not available.
7:14 AM 5:11 PM
Waning Crescent, 0% visible
METAR KBHK 080151Z AUTO 31018G26KT 10SM CLR M01/M11 A3031 RMK AO2 PK WND 31029/0106 SLP292 T10111111 $
Pressure 30.40 in
Visibility 10.0 miles
Clouds Clear
Windchill 17 °F
Dew Point 12 °F
Humidity 47%
Rainfall 0.00 in
Snow Depth Not available.
7:14 AM 5:11 PM
Waning Crescent, 0% visible
METAR KBHK 080151Z AUTO 31018G26KT 10SM CLR M01/M11 A3031 RMK AO2 PK WND 31029/0106 SLP292 T10111111 $

10-Day Weather Forecast

Almanac

Astronomy

Feb. 07, 2016 Rise Set
Actual Time
Civil Twilight
Nautical Twilight
Astronomical Twilight
Moon
Length of Visible Light
Length of Day
Tomorrow will be .
, % of the Moon is Illuminated

Today's Extremes

State Highs State Lows

Community

WunderPhotos

Upload Photos

1,891,373 photos uploaded!

WunderBlog® & News

Nearby

Air Quality

  Air Quality AQ Index Pollutant
Not available.

Snow Depth

Station Depth Elevation

Earthquake Activity

City Distance Mag. Time & Date
Minimum magnitude displayed is 2.5.

Coastal Water Temperatures

Place Temperature

Stations

Nearby Weather Stations

Station Location Temp. Windchill Dew Point Humidity Wind Precip. Elev Updated Type
                   

Watches & Warnings

There are currently no watches in effect.